createdAt,value
2022-11-24T00:00:27.616Z,8.88
2022-11-24T00:03:03.529Z,8.84
2022-11-24T00:05:42.459Z,8.85
2022-11-24T00:08:10.111Z,8.80
2022-11-24T00:10:42.512Z,8.74
2022-11-24T00:13:16.149Z,8.74
2022-11-24T00:15:52.520Z,8.72
2022-11-24T00:18:27.346Z,8.71
2022-11-24T00:20:58.173Z,8.67
2022-11-24T00:23:27.963Z,8.83
2022-11-24T00:26:14.032Z,8.84
2022-11-24T00:28:48.782Z,8.76
2022-11-24T00:31:42.764Z,8.81
2022-11-24T00:34:12.885Z,8.80
2022-11-24T00:36:48.524Z,8.83
2022-11-24T00:39:30.509Z,8.76
2022-11-24T00:42:10.721Z,8.74
2022-11-24T00:44:47.358Z,8.74
2022-11-24T00:47:23.943Z,8.69
2022-11-24T00:50:08.698Z,8.85
2022-11-24T00:52:47.728Z,8.76
2022-11-24T00:55:22.972Z,8.65
2022-11-24T00:57:53.835Z,8.70
2022-11-24T01:00:31.274Z,8.72
2022-11-24T01:03:17.452Z,8.73
2022-11-24T01:05:50.779Z,8.77
2022-11-24T01:08:23.821Z,8.85
2022-11-24T01:11:14.276Z,8.92
2022-11-24T01:13:54.541Z,8.79
2022-11-24T01:16:34.665Z,8.88
2022-11-24T01:19:07.785Z,8.82
2022-11-24T01:21:40.868Z,8.80
2022-11-24T01:24:12.833Z,8.81
2022-11-24T01:26:47.051Z,8.78
2022-11-24T01:29:17.802Z,8.79
2022-11-24T01:31:48.850Z,8.77
2022-11-24T01:34:26.964Z,8.75
2022-11-24T01:37:00.664Z,8.79
2022-11-24T01:39:32.148Z,8.85
2022-11-24T01:42:10.241Z,8.81
2022-11-24T01:44:48.398Z,8.84
2022-11-24T01:47:37.440Z,8.88
2022-11-24T01:53:06.369Z,8.87
2022-11-24T01:55:42.327Z,8.81
2022-11-24T01:58:22.175Z,8.74
2022-11-24T02:01:02.812Z,8.72
2022-11-24T02:03:42.649Z,8.74
2022-11-24T02:06:31.314Z,8.83
2022-11-24T02:09:39.846Z,8.90
2022-11-24T02:12:14.418Z,8.84
2022-11-24T02:14:51.198Z,8.89
2022-11-24T02:17:21.771Z,9.08
2022-11-24T02:20:01.013Z,8.96
2022-11-24T02:22:53.288Z,8.92
2022-11-24T02:25:50.512Z,9.00
2022-11-24T02:28:21.678Z,8.90
2022-11-24T02:30:54.499Z,8.72
2022-11-24T02:33:29.060Z,8.65
2022-11-24T02:36:02.416Z,8.66
2022-11-24T02:38:41.553Z,8.65
2022-11-24T02:41:21.749Z,8.61
2022-11-24T02:43:56.329Z,8.65
2022-11-24T02:46:27.367Z,8.70
2022-11-24T02:48:58.757Z,8.72
2022-11-24T02:51:29.163Z,9.02
2022-11-24T02:54:05.812Z,8.77
2022-11-24T02:56:39.382Z,8.72
2022-11-24T02:59:21.096Z,8.61
2022-11-24T03:02:07.221Z,8.55
2022-11-24T03:04:44.708Z,8.66
2022-11-24T03:07:25.716Z,8.64
2022-11-24T03:09:58.428Z,8.61
2022-11-24T03:15:20.229Z,8.72
2022-11-24T03:18:04.858Z,8.56
2022-11-24T03:20:35.474Z,8.58
2022-11-24T03:23:17.001Z,8.55
2022-11-24T03:25:54.529Z,8.59
2022-11-24T03:28:25.514Z,8.61
2022-11-24T03:30:52.665Z,8.64
2022-11-24T03:33:24.087Z,8.67
2022-11-24T03:35:57.800Z,8.73
2022-11-24T03:38:30.157Z,8.78
2022-11-24T03:40:58.217Z,8.67
2022-11-24T03:43:40.402Z,8.73
2022-11-24T03:46:17.037Z,8.74
2022-11-24T03:48:55.562Z,8.67
2022-11-24T03:51:26.307Z,8.57
2022-11-24T03:54:08.368Z,8.52
2022-11-24T03:56:39.549Z,8.50
2022-11-24T03:59:16.384Z,8.52
2022-11-24T04:01:46.797Z,8.56
2022-11-24T04:04:17.831Z,9.26
2022-11-24T04:06:54.015Z,12.42
2022-11-24T04:09:24.286Z,13.07
2022-11-24T04:11:59.558Z,12.67
2022-11-24T04:14:27.965Z,12.69
2022-11-24T04:16:58.553Z,13.81
2022-11-24T04:19:29.760Z,13.24
2022-11-24T04:21:59.840Z,12.74
2022-11-24T04:24:30.404Z,12.66
2022-11-24T04:27:05.205Z,13.03
2022-11-24T04:29:35.445Z,12.68
2022-11-24T04:32:05.772Z,13.11
2022-11-24T04:34:33.221Z,11.02
2022-11-24T04:37:07.755Z,10.09
2022-11-24T04:39:38.403Z,9.73
2022-11-24T04:42:10.458Z,9.66
2022-11-24T04:44:37.563Z,9.36
2022-11-24T04:47:07.612Z,9.23
2022-11-24T04:49:38.100Z,8.95
2022-11-24T04:52:06.688Z,8.96
2022-11-24T04:54:40.759Z,8.74
2022-11-24T04:57:15.983Z,8.84
2022-11-24T04:59:43.726Z,8.95
2022-11-24T05:02:11.820Z,8.83
2022-11-24T05:04:45.491Z,8.81
2022-11-24T05:07:18.263Z,9.01
2022-11-24T05:09:58.918Z,9.01
2022-11-24T05:12:27.931Z,8.78
2022-11-24T05:14:56.353Z,8.72
2022-11-24T05:17:23.525Z,8.73
2022-11-24T05:20:00.451Z,8.67
2022-11-24T05:22:31.319Z,8.53
2022-11-24T05:25:05.209Z,8.61
2022-11-24T05:27:35.850Z,8.65
2022-11-24T05:30:04.124Z,8.64
2022-11-24T05:32:34.549Z,8.51
2022-11-24T05:35:01.688Z,8.17
2022-11-24T05:37:29.455Z,8.28
2022-11-24T05:39:57.461Z,8.39
2022-11-24T05:42:25.194Z,8.32
2022-11-24T05:44:52.757Z,8.16
2022-11-24T05:47:21.027Z,8.08
2022-11-24T05:49:48.292Z,7.98
2022-11-24T05:52:19.243Z,7.84
2022-11-24T05:54:46.504Z,7.88
2022-11-24T05:57:19.652Z,7.82
2022-11-24T05:59:53.324Z,7.93
2022-11-24T06:02:21.282Z,7.83
2022-11-24T06:04:55.083Z,7.98
2022-11-24T06:07:28.438Z,7.95
2022-11-24T06:09:55.627Z,7.99
2022-11-24T06:12:23.424Z,7.91
2022-11-24T06:14:56.499Z,7.85
2022-11-24T06:17:30.163Z,7.83
2022-11-24T06:20:03.322Z,7.91
2022-11-24T06:22:34.417Z,7.82
2022-11-24T06:25:04.979Z,7.62
2022-11-24T06:27:35.780Z,7.60
2022-11-24T06:30:03.114Z,7.60
2022-11-24T06:32:33.676Z,7.60
2022-11-24T06:35:01.309Z,7.39
2022-11-24T06:37:31.216Z,7.54
2022-11-24T06:39:58.396Z,7.47
2022-11-24T06:42:31.366Z,7.45
2022-11-24T06:45:00.917Z,7.50
2022-11-24T06:47:31.633Z,7.64
2022-11-24T06:50:02.069Z,7.56
2022-11-24T06:52:29.344Z,7.39
2022-11-24T06:54:59.431Z,7.50
2022-11-24T06:57:27.823Z,7.48
2022-11-24T06:59:54.960Z,7.47
2022-11-24T07:02:25.455Z,7.76
2022-11-24T07:04:52.650Z,7.70
2022-11-24T07:07:19.826Z,7.64
2022-11-24T07:09:50.135Z,7.65
2022-11-24T07:12:17.364Z,7.67
2022-11-24T07:14:46.502Z,7.68
2022-11-24T07:17:16.171Z,7.62
2022-11-24T07:19:43.374Z,7.77
2022-11-24T07:22:10.512Z,7.70
2022-11-24T07:24:38.052Z,7.63
2022-11-24T07:27:09.060Z,7.67
2022-11-24T07:29:39.595Z,7.80
2022-11-24T07:32:10.016Z,7.65
2022-11-24T07:34:37.273Z,7.79
2022-11-24T07:37:04.679Z,7.92
2022-11-24T07:39:31.910Z,7.98
2022-11-24T07:41:59.767Z,7.99
2022-11-24T07:44:27.803Z,7.97
2022-11-24T07:46:55.347Z,7.86
2022-11-24T07:49:23.266Z,8.21
2022-11-24T07:51:53.043Z,8.01
2022-11-24T07:54:20.689Z,7.88
2022-11-24T07:56:50.836Z,7.95
2022-11-24T07:59:19.120Z,8.09
2022-11-24T08:01:46.617Z,8.12
2022-11-24T08:04:14.040Z,7.96
2022-11-24T08:06:47.356Z,8.24
2022-11-24T08:09:14.992Z,8.37
2022-11-24T08:11:44.735Z,8.36
2022-11-24T08:14:16.021Z,8.47
2022-11-24T08:16:43.774Z,8.65
2022-11-24T08:19:14.040Z,8.71
2022-11-24T08:21:44.649Z,8.61
2022-11-24T08:24:11.996Z,8.36
2022-11-24T08:26:39.517Z,8.66
2022-11-24T08:29:07.297Z,8.56
2022-11-24T08:31:35.404Z,8.33
2022-11-24T08:34:04.556Z,8.40
2022-11-24T08:36:32.605Z,8.25
2022-11-24T08:39:01.733Z,8.49
2022-11-24T08:41:30.037Z,8.54
2022-11-24T08:43:57.983Z,8.56
2022-11-24T08:46:25.333Z,8.47
2022-11-24T08:48:54.908Z,8.60
2022-11-24T08:51:26.744Z,8.42
2022-11-24T08:53:56.056Z,8.23
2022-11-24T08:56:25.979Z,8.19
2022-11-24T08:58:56.874Z,8.39
2022-11-24T09:01:24.947Z,8.45
2022-11-24T09:03:53.098Z,8.17
2022-11-24T09:06:24.068Z,8.34
2022-11-24T09:08:53.766Z,8.58
2022-11-24T09:11:21.320Z,8.49
2022-11-24T09:13:49.337Z,8.63
2022-11-24T09:16:25.051Z,8.66
2022-11-24T09:19:01.155Z,9.01
2022-11-24T09:21:33.322Z,9.10
2022-11-24T09:24:01.373Z,9.25
2022-11-24T09:26:33.745Z,8.87
2022-11-24T09:29:03.111Z,8.94
2022-11-24T09:31:33.104Z,9.32
2022-11-24T09:34:13.409Z,9.48
2022-11-24T09:36:46.623Z,9.09
2022-11-24T09:39:14.121Z,9.43
2022-11-24T09:41:50.311Z,9.54
2022-11-24T09:44:40.082Z,9.48
2022-11-24T09:47:18.559Z,9.66
2022-11-24T09:50:16.200Z,9.77
2022-11-24T09:52:55.246Z,9.41
2022-11-24T09:55:34.690Z,9.54
2022-11-24T09:58:26.910Z,9.67
2022-11-24T10:01:01.848Z,9.86
2022-11-24T10:03:33.960Z,10.22
2022-11-24T10:06:22.982Z,9.80
2022-11-24T10:08:57.126Z,10.30
2022-11-24T10:11:36.559Z,10.15
2022-11-24T10:14:41.232Z,10.23
2022-11-24T10:17:29.869Z,9.73
2022-11-24T10:20:13.114Z,9.94
2022-11-24T10:23:00.037Z,9.64
2022-11-24T10:25:48.503Z,9.89
2022-11-24T10:28:20.004Z,10.24
2022-11-24T10:30:47.370Z,10.47
2022-11-24T10:33:27.093Z,10.67
2022-11-24T10:36:15.051Z,10.42
2022-11-24T10:38:52.679Z,10.36
2022-11-24T10:41:36.262Z,10.38
2022-11-24T10:44:12.796Z,10.27
2022-11-24T10:46:40.417Z,9.91
2022-11-24T10:49:18.008Z,10.27
2022-11-24T10:51:57.865Z,10.08
2022-11-24T10:54:31.869Z,10.00
2022-11-24T10:57:10.806Z,9.66
2022-11-24T10:59:42.320Z,9.93
2022-11-24T11:02:28.025Z,9.62
2022-11-24T11:05:19.249Z,9.67
2022-11-24T11:08:10.730Z,9.99
2022-11-24T11:10:41.562Z,11.41
2022-11-24T11:13:24.234Z,11.35
2022-11-24T11:15:52.040Z,11.17
2022-11-24T11:18:23.288Z,11.36
2022-11-24T11:20:55.909Z,11.49
2022-11-24T11:23:27.759Z,11.19
2022-11-24T11:26:18.411Z,13.29
2022-11-24T11:35:12.135Z,11.13
2022-11-24T11:37:45.138Z,11.34
2022-11-24T11:40:27.514Z,12.80
2022-11-24T11:43:17.245Z,13.99
2022-11-24T11:45:46.658Z,14.54
2022-11-24T11:48:31.430Z,14.85
2022-11-24T11:51:25.884Z,12.88
2022-11-24T11:54:02.393Z,12.90
2022-11-24T11:56:55.067Z,12.12
2022-11-24T11:59:54.957Z,12.11
2022-11-24T12:02:48.549Z,11.99
2022-11-24T12:05:54.836Z,11.83
2022-11-24T12:08:25.787Z,11.45
2022-11-24T12:11:23.130Z,11.68
2022-11-24T12:14:05.488Z,11.41
2022-11-24T12:16:56.879Z,11.54
2022-11-24T12:19:45.285Z,11.60
2022-11-24T12:22:33.454Z,11.21
2022-11-24T12:25:07.096Z,11.03
2022-11-24T12:27:57.127Z,10.56
2022-11-24T12:30:33.509Z,10.98
2022-11-24T12:33:30.338Z,10.80
2022-11-24T12:36:06.775Z,10.76
2022-11-24T12:38:53.898Z,10.86
2022-11-24T12:41:42.608Z,10.82
2022-11-24T12:44:40.291Z,10.72
2022-11-24T12:47:44.357Z,10.48
2022-11-24T12:50:19.054Z,10.48
2022-11-24T12:52:59.178Z,10.28
2022-11-24T12:55:30.466Z,10.21
2022-11-24T12:58:11.433Z,10.25
2022-11-24T13:01:03.094Z,10.33
2022-11-24T13:03:55.368Z,10.28
2022-11-24T13:06:30.331Z,10.06
2022-11-24T13:09:11.364Z,9.92
2022-11-24T13:11:51.716Z,9.93
2022-11-24T13:14:34.562Z,9.72
2022-11-24T13:18:02.829Z,9.68
2022-11-24T13:20:37.430Z,9.97
2022-11-24T13:23:26.802Z,9.75
2022-11-24T13:26:14.560Z,9.60
2022-11-24T13:29:09.345Z,9.75
2022-11-24T13:32:12.652Z,9.93
2022-11-24T13:34:43.694Z,9.74
2022-11-24T13:37:31.608Z,9.84
2022-11-24T13:40:23.223Z,9.85
2022-11-24T13:42:56.960Z,9.72
2022-11-24T13:45:42.832Z,9.67
2022-11-24T13:48:19.508Z,9.58
2022-11-24T13:50:56.335Z,9.68
2022-11-24T13:53:46.140Z,9.56
2022-11-24T13:56:17.035Z,9.41
2022-11-24T13:59:01.710Z,9.27
2022-11-24T14:01:36.719Z,9.24
2022-11-24T14:04:33.059Z,9.06
2022-11-24T14:07:12.823Z,8.97
2022-11-24T14:09:52.523Z,8.93
2022-11-24T14:12:22.735Z,8.87
2022-11-24T14:15:16.059Z,8.80
2022-11-24T14:17:47.359Z,8.81
2022-11-24T14:20:32.488Z,8.75
2022-11-24T14:23:01.324Z,8.59
2022-11-24T14:25:38.532Z,8.62
2022-11-24T14:28:25.559Z,8.61
2022-11-24T14:31:10.548Z,8.69
2022-11-24T14:33:37.901Z,8.69
2022-11-24T14:36:18.152Z,8.65
2022-11-24T14:38:52.451Z,8.61
2022-11-24T14:41:25.950Z,8.66
2022-11-24T14:44:29.541Z,8.61
2022-11-24T14:47:17.141Z,8.51
2022-11-24T14:49:45.099Z,8.60
2022-11-24T14:52:21.661Z,8.47
2022-11-24T14:55:07.564Z,8.16
2022-11-24T14:57:51.975Z,8.25
2022-11-24T15:00:33.059Z,8.36
2022-11-24T15:03:19.330Z,8.20
2022-11-24T15:06:02.459Z,8.32
2022-11-24T15:08:47.974Z,8.19
2022-11-24T15:11:21.790Z,8.40
2022-11-24T15:13:56.941Z,8.33
2022-11-24T15:16:27.412Z,8.45
2022-11-24T15:19:01.056Z,8.34
2022-11-24T15:21:35.635Z,8.53
2022-11-24T15:24:14.432Z,8.29
2022-11-24T15:26:45.299Z,8.16
2022-11-24T15:29:13.432Z,8.24
2022-11-24T15:31:52.424Z,10.03
2022-11-24T15:34:23.701Z,10.74
2022-11-24T15:36:51.415Z,11.78
2022-11-24T15:39:18.799Z,12.18
2022-11-24T15:41:52.460Z,12.40
2022-11-24T15:44:23.375Z,12.54
2022-11-24T15:46:53.742Z,12.88
2022-11-24T15:49:22.003Z,12.74
2022-11-24T15:51:53.421Z,11.29
2022-11-24T15:54:24.872Z,9.83
2022-11-24T15:57:02.291Z,9.35
2022-11-24T15:59:30.391Z,8.91
2022-11-24T16:02:07.119Z,8.91
2022-11-24T16:04:37.862Z,8.54
2022-11-24T16:07:09.756Z,9.63
2022-11-24T16:09:41.451Z,10.43
2022-11-24T16:12:09.220Z,11.28
2022-11-24T16:14:40.143Z,11.84
2022-11-24T16:17:11.167Z,12.22
2022-11-24T16:19:43.307Z,12.43
2022-11-24T16:22:11.046Z,12.23
2022-11-24T16:24:38.341Z,12.10
2022-11-24T16:27:16.748Z,12.24
2022-11-24T16:29:49.926Z,11.70
2022-11-24T16:32:24.859Z,10.69
2022-11-24T16:34:55.635Z,11.21
2022-11-24T16:37:23.737Z,10.47
2022-11-24T16:39:56.867Z,10.51
2022-11-24T16:42:31.434Z,10.37
2022-11-24T16:45:02.574Z,9.83
2022-11-24T16:47:38.303Z,10.50
2022-11-24T16:50:10.323Z,10.60
2022-11-24T16:52:41.527Z,11.08
2022-11-24T16:55:12.660Z,12.23
2022-11-24T16:57:43.511Z,12.24
2022-11-24T17:00:20.077Z,11.59
2022-11-24T17:02:53.125Z,11.18
2022-11-24T17:05:23.426Z,10.77
2022-11-24T17:07:56.459Z,10.81
2022-11-24T17:10:23.921Z,11.23
2022-11-24T17:12:57.478Z,10.80
2022-11-24T17:15:34.431Z,10.69
2022-11-24T17:18:23.505Z,11.16
2022-11-24T17:20:52.589Z,11.21
2022-11-24T17:23:23.611Z,11.64
2022-11-24T17:25:53.865Z,11.99
2022-11-24T17:28:27.508Z,11.30
2022-11-24T17:30:54.980Z,11.87
2022-11-24T17:33:22.701Z,11.65
2022-11-24T17:35:52.498Z,11.72
2022-11-24T17:38:28.333Z,11.68
2022-11-24T17:40:59.023Z,11.16
2022-11-24T17:43:30.307Z,10.06
2022-11-24T17:46:05.604Z,9.42
2022-11-24T17:48:36.723Z,9.06
2022-11-24T17:51:15.506Z,8.83
2022-11-24T17:53:47.915Z,8.75
2022-11-24T17:56:21.313Z,8.33
2022-11-24T17:58:58.012Z,8.29
2022-11-24T18:01:26.473Z,8.25
2022-11-24T18:04:00.615Z,8.21
2022-11-24T18:06:47.311Z,8.10
2022-11-24T18:09:17.923Z,8.20
2022-11-24T18:11:51.351Z,8.42
2022-11-24T18:14:33.548Z,8.24
2022-11-24T18:17:10.115Z,8.12
2022-11-24T18:19:45.585Z,8.01
2022-11-24T18:22:42.899Z,8.27
2022-11-24T18:25:15.144Z,8.24
2022-11-24T18:27:49.213Z,8.07
2022-11-24T18:30:22.868Z,8.03
2022-11-24T18:32:53.892Z,8.29
2022-11-24T18:35:24.906Z,8.22
2022-11-24T18:38:09.831Z,8.07
2022-11-24T18:40:43.643Z,7.95
2022-11-24T18:43:16.524Z,8.14
2022-11-24T18:45:49.680Z,7.88
2022-11-24T18:48:28.099Z,9.13
2022-11-24T18:51:06.141Z,8.48
2022-11-24T18:53:40.628Z,8.45
2022-11-24T18:56:14.258Z,8.32
2022-11-24T18:58:47.664Z,8.09
2022-11-24T19:01:22.572Z,8.09
2022-11-24T19:03:58.360Z,8.08
2022-11-24T19:06:38.798Z,7.91
2022-11-24T19:09:18.000Z,7.94
2022-11-24T19:11:51.639Z,8.07
2022-11-24T19:14:28.112Z,8.12
2022-11-24T19:16:55.517Z,8.15
2022-11-24T19:19:29.380Z,8.05
2022-11-24T19:22:04.897Z,7.96
2022-11-24T19:24:41.789Z,8.08
2022-11-24T19:27:13.512Z,7.98
2022-11-24T19:29:47.645Z,7.98
2022-11-24T19:32:24.607Z,7.99
2022-11-24T19:34:54.774Z,7.96
2022-11-24T19:37:35.562Z,7.93
2022-11-24T19:40:10.036Z,8.06
2022-11-24T19:42:43.939Z,7.99
2022-11-24T19:45:19.886Z,7.95
2022-11-24T19:47:59.101Z,7.89
2022-11-24T19:50:40.478Z,7.89
2022-11-24T19:53:21.541Z,8.03
2022-11-24T19:55:55.791Z,8.00
2022-11-24T19:58:27.123Z,8.04
2022-11-24T20:01:10.699Z,7.87
2022-11-24T20:03:48.450Z,8.03
2022-11-24T20:06:22.003Z,8.13
2022-11-24T20:08:53.293Z,7.98
2022-11-24T20:11:23.529Z,7.95
2022-11-24T20:13:54.040Z,8.07
2022-11-24T20:16:27.760Z,7.98
2022-11-24T20:19:06.356Z,8.19
2022-11-24T20:21:43.756Z,8.11
2022-11-24T20:24:29.181Z,8.35
2022-11-24T20:27:01.425Z,8.11
2022-11-24T20:29:34.910Z,7.99
2022-11-24T20:32:11.624Z,7.91
2022-11-24T20:34:48.946Z,8.02
2022-11-24T20:37:20.870Z,8.01
2022-11-24T20:39:53.888Z,8.01
2022-11-24T20:42:29.881Z,8.14
2022-11-24T20:45:01.174Z,8.05
2022-11-24T20:47:40.153Z,7.99
2022-11-24T20:50:14.097Z,7.95
2022-11-24T20:52:50.662Z,8.00
2022-11-24T20:55:24.349Z,8.05
2022-11-24T20:57:55.085Z,8.01
2022-11-24T21:00:26.261Z,8.01
2022-11-24T21:03:02.753Z,8.10
2022-11-24T21:05:33.829Z,8.06
2022-11-24T21:08:09.926Z,8.05
2022-11-24T21:10:40.897Z,8.19
2022-11-24T21:13:11.869Z,8.25
2022-11-24T21:15:51.643Z,8.09
2022-11-24T21:18:37.745Z,8.10
2022-11-24T21:21:11.472Z,8.09
2022-11-24T21:23:51.531Z,8.05
2022-11-24T21:26:26.624Z,7.97
2022-11-24T21:29:11.617Z,8.00
2022-11-24T21:31:51.722Z,8.17
2022-11-24T21:34:24.760Z,8.23
2022-11-24T21:36:56.211Z,8.05
2022-11-24T21:39:26.074Z,8.21
2022-11-24T21:42:03.144Z,8.16
2022-11-24T21:44:34.306Z,8.08
2022-11-24T21:47:07.557Z,8.04
2022-11-24T21:49:38.989Z,7.93
2022-11-24T21:52:06.177Z,8.07
2022-11-24T21:54:45.811Z,8.20
2022-11-24T21:57:13.258Z,8.09
2022-11-24T21:59:46.796Z,8.11
2022-11-24T22:02:17.092Z,8.28
2022-11-24T22:04:51.277Z,8.07
2022-11-24T22:07:25.264Z,7.90
2022-11-24T22:09:56.357Z,7.96
2022-11-24T22:12:24.206Z,8.04
2022-11-24T22:15:01.225Z,8.01
2022-11-24T22:17:32.007Z,7.96
2022-11-24T22:19:59.298Z,8.00
2022-11-24T22:22:34.140Z,7.92
2022-11-24T22:25:12.959Z,8.00
2022-11-24T22:27:40.267Z,8.15
2022-11-24T22:30:14.179Z,7.97
2022-11-24T22:32:45.212Z,8.11
2022-11-24T22:35:16.013Z,8.07
2022-11-24T22:37:46.134Z,7.99
2022-11-24T22:40:16.396Z,7.84
2022-11-24T22:42:46.635Z,7.98
2022-11-24T22:45:19.855Z,7.99
2022-11-24T22:47:54.288Z,8.03
2022-11-24T22:50:22.038Z,7.82
2022-11-24T22:52:53.303Z,8.03
2022-11-24T22:55:23.427Z,7.95
2022-11-24T22:57:56.838Z,8.00
2022-11-24T23:00:28.095Z,7.92
2022-11-24T23:02:59.676Z,8.03
2022-11-24T23:05:37.964Z,8.06
2022-11-24T23:08:14.537Z,8.06
2022-11-24T23:10:45.597Z,8.12
2022-11-24T23:13:21.784Z,8.19
2022-11-24T23:15:59.127Z,8.28
2022-11-24T23:18:30.266Z,8.26
2022-11-24T23:21:08.392Z,8.11
2022-11-24T23:23:39.010Z,8.25
2022-11-24T23:26:19.598Z,8.12
2022-11-24T23:28:50.573Z,7.92
2022-11-24T23:31:26.699Z,7.85
2022-11-24T23:33:58.230Z,7.84
2022-11-24T23:36:30.185Z,7.92
2022-11-24T23:39:05.620Z,7.84
2022-11-24T23:41:36.861Z,7.83
2022-11-24T23:44:10.413Z,7.97
2022-11-24T23:46:46.020Z,7.97
2022-11-24T23:49:13.353Z,8.00
2022-11-24T23:51:47.281Z,7.98
2022-11-24T23:54:17.912Z,8.15
2022-11-24T23:56:52.236Z,7.97
2022-11-24T23:59:20.112Z,7.79
